createdAt,value
2019-04-10T00:00:37.353Z,74.95
2019-04-10T00:03:06.482Z,75.43
2019-04-10T00:05:36.086Z,75.40
2019-04-10T00:08:06.023Z,75.55
2019-04-10T00:10:34.726Z,75.98
2019-04-10T00:13:04.505Z,75.92
2019-04-10T00:15:33.035Z,76.28
2019-04-10T00:18:01.943Z,76.47
2019-04-10T00:20:30.632Z,76.69
2019-04-10T00:22:59.066Z,76.94
2019-04-10T00:25:28.420Z,77.04
2019-04-10T00:27:57.025Z,77.63
2019-04-10T00:30:25.440Z,78.30
2019-04-10T00:32:54.417Z,77.87
2019-04-10T00:35:23.577Z,78.06
2019-04-10T00:37:53.718Z,77.28
2019-04-10T00:40:22.145Z,77.44
2019-04-10T00:42:51.531Z,77.48
2019-04-10T00:45:20.314Z,77.66
2019-04-10T00:47:48.747Z,77.92
2019-04-10T00:50:18.179Z,78.34
2019-04-10T00:52:46.705Z,78.37
2019-04-10T00:55:15.345Z,78.70
2019-04-10T00:57:44.203Z,78.85
2019-04-10T01:00:12.878Z,78.93
2019-04-10T01:02:41.258Z,78.93
2019-04-10T01:05:10.999Z,79.56
2019-04-10T01:07:42.744Z,79.71
2019-04-10T01:10:10.494Z,79.87
2019-04-10T01:12:38.984Z,80.14
2019-04-10T01:15:08.342Z,80.12
2019-04-10T01:17:36.879Z,80.01
2019-04-10T01:20:07.159Z,79.98
2019-04-10T01:22:35.622Z,80.27
2019-04-10T01:25:06.134Z,80.65
2019-04-10T01:27:34.794Z,80.35
2019-04-10T01:30:04.297Z,80.64
2019-04-10T01:32:34.164Z,80.51
2019-04-10T01:35:02.746Z,80.77
2019-04-10T01:37:31.210Z,80.57
2019-04-10T01:39:59.655Z,80.63
2019-04-10T01:42:28.524Z,80.60
2019-04-10T01:44:57.333Z,80.31
2019-04-10T01:47:26.930Z,80.80
2019-04-10T01:49:55.826Z,80.75
2019-04-10T01:52:24.798Z,80.88
2019-04-10T01:54:56.183Z,81.04
2019-04-10T01:57:24.600Z,80.99
2019-04-10T01:59:53.032Z,81.21
2019-04-10T02:02:23.476Z,81.46
2019-04-10T02:04:53.708Z,81.72
2019-04-10T02:07:23.033Z,81.73
2019-04-10T02:09:51.889Z,82.02
2019-04-10T02:12:20.740Z,82.32
2019-04-10T02:14:49.346Z,82.57
2019-04-10T02:17:17.840Z,82.60
2019-04-10T02:19:46.269Z,82.69
2019-04-10T02:22:14.717Z,82.78
2019-04-10T02:24:43.904Z,82.71
2019-04-10T02:27:12.354Z,82.96
2019-04-10T02:29:41.953Z,83.06
2019-04-10T02:32:12.047Z,83.19
2019-04-10T02:34:41.486Z,83.35
2019-04-10T02:37:11.070Z,83.56
2019-04-10T02:39:46.172Z,84.06
2019-04-10T02:42:10.169Z,84.51
2019-04-10T02:44:38.814Z,84.73
2019-04-10T02:47:07.282Z,84.95
2019-04-10T02:49:36.442Z,85.28
2019-04-10T02:52:06.644Z,85.42
2019-04-10T02:54:35.768Z,85.95
2019-04-10T02:57:05.508Z,86.09
2019-04-10T02:59:35.167Z,86.12
2019-04-10T03:02:04.290Z,86.30
2019-04-10T03:04:33.136Z,86.27
2019-04-10T03:07:02.059Z,86.36
2019-04-10T03:09:46.029Z,86.58
2019-04-10T03:12:01.273Z,86.65
2019-04-10T03:14:30.095Z,86.83
2019-04-10T03:16:59.788Z,87.13
2019-04-10T03:19:28.382Z,87.48
2019-04-10T03:21:57.690Z,87.51
2019-04-10T03:24:27.452Z,87.87
2019-04-10T03:26:56.221Z,88.12
2019-04-10T03:29:24.643Z,88.27
2019-04-10T03:31:55.422Z,88.56
2019-04-10T03:34:28.085Z,88.64
2019-04-10T03:36:56.060Z,88.92
2019-04-10T03:39:25.686Z,89.23
2019-04-10T03:41:54.742Z,89.32
2019-04-10T03:44:23.648Z,89.23
2019-04-10T03:46:53.782Z,89.31
2019-04-10T03:49:23.335Z,89.25
2019-04-10T03:51:52.684Z,89.41
2019-04-10T03:54:21.469Z,89.57
2019-04-10T03:56:50.044Z,89.75
2019-04-10T03:59:18.497Z,90.06
2019-04-10T04:01:47.238Z,90.37
2019-04-10T04:04:17.416Z,90.65
2019-04-10T04:06:46.092Z,90.84
2019-04-10T04:09:15.059Z,91.00
2019-04-10T04:11:44.633Z,90.90
2019-04-10T04:14:13.184Z,90.95
2019-04-10T04:16:41.608Z,91.02
2019-04-10T04:19:10.186Z,90.83
2019-04-10T04:21:39.622Z,91.08
2019-04-10T04:24:09.383Z,91.22
2019-04-10T04:26:38.026Z,91.10
2019-04-10T04:29:07.425Z,91.25
2019-04-10T04:31:36.274Z,91.33
2019-04-10T04:34:04.793Z,91.15
2019-04-10T04:36:33.232Z,91.33
2019-04-10T04:39:13.532Z,91.23
2019-04-10T04:41:31.907Z,91.54
2019-04-10T04:44:00.335Z,91.59
2019-04-10T04:46:28.863Z,91.82
2019-04-10T04:48:57.745Z,91.93
2019-04-10T04:51:27.296Z,91.94
2019-04-10T04:53:56.917Z,92.06
2019-04-10T04:56:26.138Z,92.26
2019-04-10T04:58:55.764Z,92.41
2019-04-10T05:01:24.525Z,93.01
2019-04-10T05:03:52.945Z,93.38
2019-04-10T05:06:22.266Z,93.48
2019-04-10T05:08:51.042Z,93.26
2019-04-10T05:11:20.448Z,93.27
2019-04-10T05:13:49.232Z,93.13
2019-04-10T05:16:18.638Z,93.08
2019-04-10T05:18:47.710Z,93.24
2019-04-10T05:21:17.064Z,93.69
2019-04-10T05:23:46.819Z,94.25
2019-04-10T05:26:16.538Z,95.10
2019-04-10T05:28:45.355Z,95.39
2019-04-10T05:31:13.889Z,95.96
2019-04-10T05:33:43.623Z,96.47
2019-04-10T05:36:13.196Z,96.31
2019-04-10T05:38:43.987Z,96.36
2019-04-10T05:41:13.356Z,96.26
2019-04-10T05:43:42.590Z,96.49
2019-04-10T05:46:12.302Z,96.26
2019-04-10T05:48:41.914Z,96.49
2019-04-10T05:51:10.460Z,96.28
2019-04-10T05:53:38.895Z,96.49
2019-04-10T05:56:07.383Z,96.57
2019-04-10T05:58:35.802Z,96.40
2019-04-10T06:01:06.021Z,96.17
2019-04-10T06:03:34.575Z,96.23
2019-04-10T06:06:04.096Z,96.01
2019-04-10T06:08:33.319Z,96.45
2019-04-10T06:11:01.894Z,96.57
2019-04-10T06:13:30.438Z,96.38
2019-04-10T06:15:59.362Z,95.97
2019-04-10T06:18:29.012Z,96.05
2019-04-10T06:20:58.710Z,96.24
2019-04-10T06:23:27.618Z,96.00
2019-04-10T06:25:56.378Z,95.86
2019-04-10T06:28:26.220Z,95.86
2019-04-10T06:30:54.993Z,95.96
2019-04-10T06:33:24.146Z,95.24
2019-04-10T06:35:53.685Z,94.14
2019-04-10T06:38:23.108Z,91.19
2019-04-10T06:40:52.377Z,88.78
2019-04-10T06:43:22.233Z,85.44
2019-04-10T06:45:52.313Z,83.19
2019-04-10T06:48:21.160Z,80.25
2019-04-10T06:50:49.579Z,81.47
2019-04-10T06:53:18.705Z,82.52
2019-04-10T06:55:47.206Z,83.32
2019-04-10T06:58:18.672Z,82.96
2019-04-10T07:00:51.665Z,83.33
2019-04-10T07:03:17.338Z,82.54
2019-04-10T07:06:00.447Z,82.94
2019-04-10T07:08:19.000Z,82.35
2019-04-10T07:10:54.177Z,79.94
2019-04-10T07:13:17.538Z,81.90
2019-04-10T07:15:46.962Z,82.22
2019-04-10T07:18:18.562Z,80.26
2019-04-10T07:20:46.175Z,81.02
2019-04-10T07:23:22.463Z,79.13
2019-04-10T07:25:47.260Z,78.27
2019-04-10T07:28:17.407Z,77.72
2019-04-10T07:30:46.050Z,76.46
2019-04-10T07:33:16.673Z,73.18
2019-04-10T07:35:44.657Z,71.71
2019-04-10T07:38:13.953Z,74.37
2019-04-10T07:40:42.929Z,72.30
2019-04-10T07:43:11.405Z,73.02
2019-04-10T07:45:39.896Z,72.29
2019-04-10T07:48:08.733Z,70.30
2019-04-10T07:50:37.333Z,70.66
2019-04-10T07:53:06.157Z,72.15
2019-04-10T07:55:34.805Z,72.17
2019-04-10T07:58:03.227Z,71.65
2019-04-10T08:00:32.043Z,71.22
2019-04-10T08:03:00.554Z,69.29
2019-04-10T08:05:29.581Z,65.23
2019-04-10T08:07:59.081Z,62.79
2019-04-10T08:10:28.428Z,62.94
2019-04-10T08:12:58.083Z,60.56
2019-04-10T08:15:27.324Z,64.42
2019-04-10T08:17:56.162Z,63.92
2019-04-10T08:20:24.665Z,61.55
2019-04-10T08:22:53.322Z,65.03
2019-04-10T08:25:22.811Z,68.03
2019-04-10T08:27:52.262Z,66.13
2019-04-10T08:30:20.936Z,69.12
2019-04-10T08:32:57.149Z,69.25
2019-04-10T08:35:19.537Z,67.45
2019-04-10T08:37:48.702Z,68.39
2019-04-10T08:40:17.645Z,69.50
2019-04-10T08:42:47.501Z,69.31
2019-04-10T08:45:16.817Z,70.25
2019-04-10T08:47:45.380Z,70.47
2019-04-10T08:50:13.988Z,69.46
2019-04-10T08:52:42.499Z,69.78
2019-04-10T08:55:10.986Z,70.09
2019-04-10T08:57:39.463Z,68.66
2019-04-10T09:00:08.540Z,68.26
2019-04-10T09:02:38.139Z,68.46
2019-04-10T09:05:11.249Z,71.63
2019-04-10T09:07:40.157Z,71.00
2019-04-10T09:10:08.882Z,70.22
2019-04-10T09:12:37.326Z,70.85
2019-04-10T09:15:07.835Z,69.65
2019-04-10T09:17:37.623Z,68.50
2019-04-10T09:20:08.793Z,68.22
2019-04-10T09:23:04.411Z,69.12
2019-04-10T09:25:09.118Z,68.85
2019-04-10T09:27:37.985Z,66.93
2019-04-10T09:30:08.811Z,68.30
2019-04-10T09:32:37.574Z,69.00
2019-04-10T09:35:08.792Z,67.19
2019-04-10T09:37:38.065Z,65.88
2019-04-10T09:40:09.008Z,65.82
2019-04-10T09:42:37.597Z,65.74
2019-04-10T09:45:06.967Z,64.33
2019-04-10T09:47:35.798Z,63.44
2019-04-10T09:50:05.876Z,62.97
2019-04-10T09:52:35.481Z,62.36
2019-04-10T09:55:07.373Z,62.00
2019-04-10T09:57:36.727Z,63.86
2019-04-10T10:00:07.673Z,63.45
2019-04-10T10:02:36.110Z,63.14
2019-04-10T10:05:06.318Z,62.81
2019-04-10T10:07:34.873Z,62.60
2019-04-10T10:10:05.025Z,62.71
2019-04-10T10:12:34.362Z,61.15
2019-04-10T10:15:03.756Z,60.77
2019-04-10T10:17:32.826Z,58.70
2019-04-10T10:20:01.913Z,59.62
2019-04-10T10:22:30.939Z,59.93
2019-04-10T10:25:00.533Z,58.85
2019-04-10T10:27:30.082Z,58.06
2019-04-10T10:30:02.086Z,56.65
2019-04-10T10:32:30.933Z,56.47
2019-04-10T10:34:59.390Z,57.14
2019-04-10T10:37:28.408Z,57.75
2019-04-10T10:39:57.122Z,58.00
2019-04-10T10:42:25.659Z,57.05
2019-04-10T10:44:54.452Z,56.29
2019-04-10T10:47:24.127Z,57.89
2019-04-10T10:49:52.887Z,58.05
2019-04-10T10:52:21.626Z,57.77
2019-04-10T10:54:50.037Z,57.98
2019-04-10T10:57:19.355Z,57.33
2019-04-10T10:59:47.918Z,56.83
2019-04-10T11:02:17.129Z,56.76
2019-04-10T11:04:45.689Z,55.69
2019-04-10T11:07:14.491Z,56.47
2019-04-10T11:09:44.418Z,56.85
2019-04-10T11:12:13.623Z,56.52
2019-04-10T11:14:42.098Z,54.59
2019-04-10T11:17:11.898Z,54.45
2019-04-10T11:19:41.245Z,54.44
2019-04-10T11:22:12.698Z,54.22
2019-04-10T11:24:41.268Z,54.04
2019-04-10T11:27:11.860Z,52.51
2019-04-10T11:29:42.559Z,53.88
2019-04-10T11:32:11.758Z,51.98
2019-04-10T11:34:40.794Z,54.16
2019-04-10T11:37:23.105Z,54.34
2019-04-10T11:42:10.202Z,55.29
2019-04-10T11:44:39.679Z,55.06
2019-04-10T11:47:10.495Z,54.69
2019-04-10T11:49:42.870Z,54.80
2019-04-10T11:52:10.557Z,54.68
2019-04-10T11:54:41.355Z,54.96
2019-04-10T11:57:10.122Z,54.79
2019-04-10T11:59:41.050Z,53.11
2019-04-10T12:02:10.290Z,52.65
2019-04-10T12:04:48.128Z,50.04
2019-04-10T12:07:36.038Z,51.54
2019-04-10T12:12:11.226Z,53.03
2019-04-10T12:14:39.865Z,52.65
2019-04-10T12:17:09.669Z,51.55
2019-04-10T12:19:38.387Z,48.94
2019-04-10T12:22:07.554Z,49.41
2019-04-10T12:24:36.396Z,49.49
2019-04-10T12:27:04.942Z,51.08
2019-04-10T12:29:33.469Z,51.49
2019-04-10T12:32:01.907Z,51.61
2019-04-10T12:34:30.347Z,51.43
2019-04-10T12:36:58.919Z,51.34
2019-04-10T12:39:28.006Z,51.95
2019-04-10T12:41:57.517Z,52.19
2019-04-10T12:44:26.683Z,51.57
2019-04-10T12:46:55.142Z,51.59
2019-04-10T12:49:23.603Z,51.78
2019-04-10T12:51:52.125Z,51.39
2019-04-10T12:54:21.603Z,51.76
2019-04-10T12:56:50.566Z,51.33
2019-04-10T12:59:19.426Z,51.12
2019-04-10T13:01:48.969Z,50.71
2019-04-10T13:04:18.024Z,50.69
2019-04-10T13:06:46.676Z,49.87
2019-04-10T13:09:15.965Z,49.73
2019-04-10T13:11:44.889Z,49.60
2019-04-10T13:14:13.390Z,49.30
2019-04-10T13:16:42.850Z,49.07
2019-04-10T13:19:11.534Z,48.45
2019-04-10T13:21:39.963Z,49.33
2019-04-10T13:24:09.137Z,48.94
2019-04-10T13:26:37.952Z,49.06
2019-04-10T13:29:06.455Z,48.68
2019-04-10T13:31:35.145Z,48.86
2019-04-10T13:34:04.852Z,48.64
2019-04-10T13:36:33.649Z,48.68
2019-04-10T13:39:02.381Z,47.56
2019-04-10T13:41:31.039Z,47.58
2019-04-10T13:44:00.306Z,47.37
2019-04-10T13:46:29.015Z,47.61
2019-04-10T13:48:57.691Z,47.19
2019-04-10T13:51:26.113Z,47.14
2019-04-10T13:53:55.250Z,47.18
2019-04-10T13:56:25.278Z,46.30
2019-04-10T13:58:53.923Z,46.71
2019-04-10T14:01:25.207Z,47.25
2019-04-10T14:03:54.449Z,46.46
2019-04-10T14:06:23.064Z,46.81
2019-04-10T14:09:08.150Z,46.79
2019-04-10T14:11:22.175Z,46.35
2019-04-10T14:13:51.830Z,45.79
2019-04-10T14:16:21.019Z,45.07
2019-04-10T14:18:50.780Z,45.01
2019-04-10T14:21:20.667Z,45.18
2019-04-10T14:23:49.437Z,45.20
2019-04-10T14:26:42.000Z,44.96
2019-04-10T14:29:02.271Z,44.62
2019-04-10T14:31:32.291Z,44.61
2019-04-10T14:34:01.673Z,44.70
2019-04-10T14:36:30.318Z,44.26
2019-04-10T14:39:10.212Z,44.50
2019-04-10T14:41:29.660Z,44.27
2019-04-10T14:43:58.094Z,42.68
2019-04-10T14:46:26.633Z,42.82
2019-04-10T14:48:55.219Z,42.70
2019-04-10T14:51:25.073Z,42.84
2019-04-10T14:53:53.568Z,43.01
2019-04-10T14:56:22.164Z,43.35
2019-04-10T14:58:53.599Z,42.99
2019-04-10T15:01:22.186Z,42.55
2019-04-10T15:03:50.849Z,41.23
2019-04-10T15:06:21.513Z,41.25
2019-04-10T15:08:50.286Z,41.40
2019-04-10T15:11:19.376Z,41.65
2019-04-10T15:13:48.731Z,41.87
2019-04-10T15:16:17.539Z,42.01
2019-04-10T15:18:46.107Z,42.02
2019-04-10T15:21:14.822Z,42.15
2019-04-10T15:23:43.329Z,41.96
2019-04-10T15:26:13.506Z,42.21
2019-04-10T15:28:43.614Z,41.83
2019-04-10T15:31:12.234Z,42.35
2019-04-10T15:33:42.756Z,42.05
2019-04-10T15:36:12.951Z,42.46
2019-04-10T15:38:42.155Z,43.07
2019-04-10T15:41:10.797Z,43.38
2019-04-10T15:43:39.370Z,43.03
2019-04-10T15:46:08.736Z,43.06
2019-04-10T15:48:37.705Z,42.48
2019-04-10T15:51:06.432Z,42.29
2019-04-10T15:53:34.991Z,42.47
2019-04-10T15:56:03.569Z,42.55
2019-04-10T15:58:33.281Z,42.20
2019-04-10T16:01:02.457Z,42.34
2019-04-10T16:03:30.866Z,42.07
2019-04-10T16:05:59.299Z,42.63
2019-04-10T16:08:28.820Z,43.65
2019-04-10T16:10:58.945Z,42.53
2019-04-10T16:13:36.656Z,42.12
2019-04-10T16:16:07.306Z,41.94
2019-04-10T16:18:36.666Z,41.43
2019-04-10T16:21:06.296Z,41.73
2019-04-10T16:23:42.564Z,41.35
2019-04-10T16:26:11.195Z,41.18
2019-04-10T16:28:39.760Z,41.45
2019-04-10T16:31:08.180Z,41.92
2019-04-10T16:33:36.629Z,42.53
2019-04-10T16:36:05.376Z,42.38
2019-04-10T16:38:33.879Z,42.55
2019-04-10T16:41:02.795Z,43.09
2019-04-10T16:43:32.645Z,42.46
2019-04-10T16:46:01.402Z,43.02
2019-04-10T16:48:29.873Z,42.76
2019-04-10T16:51:01.621Z,43.58
2019-04-10T16:53:30.230Z,44.54
2019-04-10T16:55:59.053Z,44.97
2019-04-10T16:58:27.659Z,44.37
2019-04-10T17:00:56.075Z,44.96
2019-04-10T17:03:25.363Z,45.54
2019-04-10T17:05:54.002Z,44.98
2019-04-10T17:08:22.413Z,45.05
2019-04-10T17:10:52.383Z,45.04
2019-04-10T17:13:21.103Z,45.14
2019-04-10T17:15:50.325Z,45.23
2019-04-10T17:18:21.148Z,45.59
2019-04-10T17:20:50.928Z,45.44
2019-04-10T17:23:20.566Z,45.38
2019-04-10T17:25:50.660Z,45.60
2019-04-10T17:28:22.025Z,45.54
2019-04-10T17:30:49.854Z,45.89
2019-04-10T17:33:18.678Z,45.48
2019-04-10T17:35:47.559Z,45.59
2019-04-10T17:38:16.221Z,45.56
2019-04-10T17:40:50.546Z,45.87
2019-04-10T17:43:15.056Z,46.02
2019-04-10T17:45:44.863Z,46.47
2019-04-10T17:48:14.139Z,46.74
2019-04-10T17:50:43.762Z,47.12
2019-04-10T17:53:13.350Z,47.37
2019-04-10T17:55:44.066Z,47.44
2019-04-10T17:58:13.671Z,47.91
2019-04-10T18:00:45.312Z,48.01
2019-04-10T18:03:17.983Z,48.20
2019-04-10T18:05:44.732Z,48.19
2019-04-10T18:08:13.509Z,48.45
2019-04-10T18:10:51.154Z,48.73
2019-04-10T18:13:18.804Z,48.64
2019-04-10T18:15:48.365Z,48.67
2019-04-10T18:18:17.769Z,48.82
2019-04-10T18:20:46.704Z,48.93
2019-04-10T18:23:15.547Z,49.32
2019-04-10T18:25:44.460Z,49.44
2019-04-10T18:28:13.867Z,49.70
2019-04-10T18:30:42.441Z,49.97
2019-04-10T18:33:12.089Z,50.31
2019-04-10T18:35:40.969Z,50.53
2019-04-10T18:38:09.485Z,50.93
2019-04-10T18:40:39.201Z,51.23
2019-04-10T18:43:07.989Z,51.44
2019-04-10T18:45:37.938Z,51.70
2019-04-10T18:48:08.266Z,52.06
2019-04-10T18:50:37.245Z,52.42
2019-04-10T18:53:06.099Z,52.78
2019-04-10T18:55:34.659Z,52.93
2019-04-10T18:58:05.413Z,53.07
2019-04-10T19:00:52.167Z,53.46
2019-04-10T19:03:25.947Z,53.74
2019-04-10T19:06:00.310Z,54.26
2019-04-10T19:08:30.072Z,54.70
2019-04-10T19:11:10.561Z,54.85
2019-04-10T19:13:29.108Z,54.88
2019-04-10T19:15:57.561Z,55.23
2019-04-10T19:18:25.998Z,55.36
2019-04-10T19:20:56.579Z,55.26
2019-04-10T19:23:25.492Z,55.49
2019-04-10T19:25:54.701Z,55.49
2019-04-10T19:28:32.225Z,55.64
2019-04-10T19:31:11.888Z,55.81
2019-04-10T19:33:37.367Z,56.09
2019-04-10T19:36:06.263Z,56.38
2019-04-10T19:38:35.656Z,56.44
2019-04-10T19:41:04.794Z,56.55
2019-04-10T19:43:34.667Z,56.60
2019-04-10T19:46:06.212Z,56.78
2019-04-10T19:48:35.222Z,57.02
2019-04-10T19:51:03.765Z,57.13
2019-04-10T19:53:33.757Z,57.56
2019-04-10T19:56:02.465Z,57.92
2019-04-10T19:58:32.465Z,58.10
2019-04-10T20:01:01.122Z,58.62
2019-04-10T20:03:29.949Z,58.63
2019-04-10T20:06:00.302Z,58.81
2019-04-10T20:08:29.025Z,59.16
2019-04-10T20:10:58.237Z,59.01
2019-04-10T20:13:27.020Z,58.93
2019-04-10T20:15:55.666Z,59.03
2019-04-10T20:18:24.573Z,59.14
2019-04-10T20:20:53.370Z,59.17
2019-04-10T20:23:21.863Z,59.18
2019-04-10T20:25:50.562Z,59.41
2019-04-10T20:28:20.612Z,59.33
2019-04-10T20:30:52.235Z,59.48
2019-04-10T20:33:20.789Z,59.78
2019-04-10T20:35:50.770Z,60.14
2019-04-10T20:38:27.256Z,60.14
2019-04-10T20:44:23.114Z,59.98
2019-04-10T20:46:52.778Z,60.03
2019-04-10T20:49:22.480Z,59.79
2019-04-10T20:51:51.397Z,59.79
2019-04-10T20:54:20.387Z,59.69
2019-04-10T20:56:50.646Z,59.79
2019-04-10T20:59:26.461Z,60.08
2019-04-10T21:01:55.803Z,60.42
2019-04-10T21:04:25.440Z,60.39
2019-04-10T21:06:56.595Z,60.69
2019-04-10T21:09:27.665Z,60.91
2019-04-10T21:12:03.863Z,60.95
2019-04-10T21:14:28.121Z,61.16
2019-04-10T21:17:05.221Z,61.32
2019-04-10T21:19:33.848Z,61.51
2019-04-10T21:22:03.692Z,61.77
2019-04-10T21:24:33.601Z,61.99
2019-04-10T21:27:03.582Z,62.20
2019-04-10T21:29:50.556Z,62.37
2019-04-10T21:32:30.341Z,62.66
2019-04-10T21:35:02.076Z,62.82
2019-04-10T21:37:30.726Z,62.78
2019-04-10T21:40:00.395Z,63.34
2019-04-10T21:42:29.778Z,63.32
2019-04-10T21:44:58.316Z,63.68
2019-04-10T21:47:27.709Z,63.99
2019-04-10T21:49:56.907Z,63.93
2019-04-10T21:52:25.710Z,64.24
2019-04-10T21:54:57.826Z,64.32
2019-04-10T21:57:24.465Z,64.52
2019-04-10T21:59:53.836Z,64.85
2019-04-10T22:02:23.825Z,65.31
2019-04-10T22:04:52.661Z,65.51
2019-04-10T22:07:34.828Z,65.79
2019-04-10T22:10:08.217Z,65.98
2019-04-10T22:12:42.187Z,66.43
2019-04-10T22:15:12.857Z,66.75
2019-04-10T22:17:42.550Z,66.95
2019-04-10T22:20:11.739Z,67.23
2019-04-10T22:22:40.440Z,67.44
2019-04-10T22:25:10.959Z,67.81
2019-04-10T22:27:39.656Z,67.79
2019-04-10T22:30:08.852Z,68.03
2019-04-10T22:32:37.358Z,67.99
2019-04-10T22:35:07.383Z,67.96
2019-04-10T22:37:36.009Z,68.38
2019-04-10T22:40:06.563Z,68.47
2019-04-10T22:42:42.544Z,69.01
2019-04-10T22:45:08.296Z,69.33
2019-04-10T22:47:36.733Z,69.41
2019-04-10T22:50:06.235Z,69.67
2019-04-10T22:52:34.708Z,69.72
2019-04-10T22:55:03.718Z,69.89
2019-04-10T22:57:32.503Z,70.04
2019-04-10T23:00:00.945Z,70.28
2019-04-10T23:02:29.943Z,70.36
2019-04-10T23:04:59.715Z,70.22
2019-04-10T23:07:28.567Z,70.22
2019-04-10T23:09:57.109Z,70.46
2019-04-10T23:12:26.556Z,70.53
2019-04-10T23:14:55.418Z,70.73
2019-04-10T23:17:24.364Z,70.78
2019-04-10T23:19:54.195Z,70.92
2019-04-10T23:22:23.118Z,71.14
2019-04-10T23:24:51.908Z,71.22
2019-04-10T23:27:21.626Z,71.26
2019-04-10T23:29:50.664Z,71.12
2019-04-10T23:32:19.476Z,71.13
2019-04-10T23:34:49.300Z,70.75
2019-04-10T23:37:18.400Z,70.74
2019-04-10T23:39:48.233Z,70.81
2019-04-10T23:42:16.756Z,71.12
2019-04-10T23:44:45.201Z,71.21
2019-04-10T23:47:13.839Z,71.34
2019-04-10T23:49:42.339Z,71.23
2019-04-10T23:52:11.734Z,71.06
2019-04-10T23:54:43.592Z,70.93
2019-04-10T23:57:12.107Z,70.88
2019-04-10T23:59:40.637Z,70.38
